sensor_id;sensor_type;location;lat;lon;timestamp;pressure;altitude;pressure_sealevel;temperature;humidity
38558;BME280;24333;42.626;23.308;2022-10-16T00:09:21;92838.91;;;6.55;100.00
38558;BME280;24333;42.626;23.308;2022-10-16T00:11:47;92842.16;;;6.48;100.00
38558;BME280;24333;42.626;23.308;2022-10-16T00:14:14;92842.00;;;6.45;100.00
38558;BME280;24333;42.626;23.308;2022-10-16T00:17:09;92847.31;;;6.41;100.00
38558;BME280;24333;42.626;23.308;2022-10-16T00:20:13;92835.88;;;6.35;100.00
38558;BME280;24333;42.626;23.308;2022-10-16T00:22:38;92843.03;;;6.40;100.00
38558;BME280;24333;42.626;23.308;2022-10-16T00:25:05;92845.38;;;6.42;100.00
38558;BME280;24333;42.626;23.308;2022-10-16T00:30:56;92865.41;;;6.49;100.00
38558;BME280;24333;42.626;23.308;2022-10-16T00:33:22;92871.13;;;6.48;100.00
38558;BME280;24333;42.626;23.308;2022-10-16T00:35:47;92868.31;;;6.44;100.00
38558;BME280;24333;42.626;23.308;2022-10-16T00:38:13;92854.19;;;6.39;100.00
38558;BME280;24333;42.626;23.308;2022-10-16T00:40:39;92851.53;;;6.30;100.00
38558;BME280;24333;42.626;23.308;2022-10-16T00:43:12;92873.81;;;6.35;100.00
38558;BME280;24333;42.626;23.308;2022-10-16T00:45:44;92864.97;;;6.26;100.00
38558;BME280;24333;42.626;23.308;2022-10-16T00:48:34;92856.25;;;6.20;100.00
38558;BME280;24333;42.626;23.308;2022-10-16T00:51:25;92849.19;;;6.28;100.00
38558;BME280;24333;42.626;23.308;2022-10-16T00:54:17;92862.00;;;6.40;100.00
38558;BME280;24333;42.626;23.308;2022-10-16T01:00:25;92859.34;;;6.31;100.00
38558;BME280;24333;42.626;23.308;2022-10-16T01:02:54;92858.81;;;6.17;100.00
38558;BME280;24333;42.626;23.308;2022-10-16T01:05:22;92869.78;;;6.20;100.00
38558;BME280;24333;42.626;23.308;2022-10-16T01:08:12;92859.69;;;6.08;100.00
38558;BME280;24333;42.626;23.308;2022-10-16T01:10:55;92860.28;;;6.14;100.00
38558;BME280;24333;42.626;23.308;2022-10-16T01:13:29;92876.59;;;6.27;100.00
38558;BME280;24333;42.626;23.308;2022-10-16T01:17:06;92874.47;;;6.32;100.00
38558;BME280;24333;42.626;23.308;2022-10-16T01:22:38;92857.50;;;6.23;100.00
38558;BME280;24333;42.626;23.308;2022-10-16T01:25:23;92869.06;;;6.32;100.00
38558;BME280;24333;42.626;23.308;2022-10-16T01:27:59;92865.69;;;6.35;100.00
38558;BME280;24333;42.626;23.308;2022-10-16T01:30:30;92854.72;;;6.32;100.00
38558;BME280;24333;42.626;23.308;2022-10-16T01:33:14;92857.34;;;6.41;100.00
38558;BME280;24333;42.626;23.308;2022-10-16T01:35:46;92841.75;;;6.38;100.00
38558;BME280;24333;42.626;23.308;2022-10-16T01:38:21;92841.75;;;6.38;100.00
38558;BME280;24333;42.626;23.308;2022-10-16T01:40:53;92860.97;;;6.45;100.00
38558;BME280;24333;42.626;23.308;2022-10-16T01:43:26;92847.72;;;6.31;100.00
38558;BME280;24333;42.626;23.308;2022-10-16T01:46:00;92852.34;;;6.30;100.00
38558;BME280;24333;42.626;23.308;2022-10-16T01:48:26;92869.97;;;6.36;100.00
38558;BME280;24333;42.626;23.308;2022-10-16T01:51:23;92868.38;;;6.35;100.00
38558;BME280;24333;42.626;23.308;2022-10-16T01:53:53;92854.00;;;6.22;100.00
38558;BME280;24333;42.626;23.308;2022-10-16T01:56:55;92845.94;;;6.14;100.00
38558;BME280;24333;42.626;23.308;2022-10-16T01:59:31;92851.50;;;6.17;100.00
38558;BME280;24333;42.626;23.308;2022-10-16T02:02:04;92871.75;;;6.32;100.00
38558;BME280;24333;42.626;23.308;2022-10-16T02:05:31;92866.81;;;6.34;100.00
38558;BME280;24333;42.626;23.308;2022-10-16T02:07:49;92872.81;;;6.40;100.00
38558;BME280;24333;42.626;23.308;2022-10-16T02:45:44;92889.72;;;6.16;100.00
38558;BME280;24333;42.626;23.308;2022-10-16T02:48:09;92894.50;;;6.19;100.00
38558;BME280;24333;42.626;23.308;2022-10-16T02:50:35;92887.47;;;6.18;100.00
38558;BME280;24333;42.626;23.308;2022-10-16T02:53:00;92896.88;;;6.20;100.00
38558;BME280;24333;42.626;23.308;2022-10-16T02:55:26;92897.78;;;6.25;100.00
38558;BME280;24333;42.626;23.308;2022-10-16T02:57:53;92893.19;;;6.25;100.00
38558;BME280;24333;42.626;23.308;2022-10-16T03:00:19;92897.47;;;6.26;100.00
38558;BME280;24333;42.626;23.308;2022-10-16T03:02:45;92895.44;;;6.23;100.00
38558;BME280;24333;42.626;23.308;2022-10-16T03:05:12;92900.84;;;6.23;100.00
38558;BME280;24333;42.626;23.308;2022-10-16T03:07:37;92908.31;;;6.26;100.00
38558;BME280;24333;42.626;23.308;2022-10-16T03:10:06;92901.75;;;6.27;100.00
38558;BME280;24333;42.626;23.308;2022-10-16T03:12:32;92899.72;;;6.24;100.00
38558;BME280;24333;42.626;23.308;2022-10-16T03:14:57;92909.44;;;6.25;100.00
38558;BME280;24333;42.626;23.308;2022-10-16T03:17:23;92909.44;;;6.25;100.00
38558;BME280;24333;42.626;23.308;2022-10-16T03:19:49;92919.13;;;6.26;100.00
38558;BME280;24333;42.626;23.308;2022-10-16T03:22:15;92909.13;;;6.18;100.00
38558;BME280;24333;42.626;23.308;2022-10-16T03:24:40;92911.38;;;6.16;100.00
38558;BME280;24333;42.626;23.308;2022-10-16T03:27:06;92910.59;;;6.15;100.00
38558;BME280;24333;42.626;23.308;2022-10-16T03:29:31;92907.75;;;6.12;100.00
38558;BME280;24333;42.626;23.308;2022-10-16T03:31:58;92922.22;;;6.16;100.00
38558;BME280;24333;42.626;23.308;2022-10-16T03:34:24;92901.75;;;6.06;100.00
38558;BME280;24333;42.626;23.308;2022-10-16T03:36:52;92890.97;;;5.97;100.00
38558;BME280;24333;42.626;23.308;2022-10-16T03:41:54;92917.69;;;5.99;100.00
38558;BME280;24333;42.626;23.308;2022-10-16T03:44:19;92901.06;;;5.88;100.00
38558;BME280;24333;42.626;23.308;2022-10-16T03:46:45;92917.75;;;5.90;100.00
38558;BME280;24333;42.626;23.308;2022-10-16T03:49:10;92900.13;;;5.84;100.00
38558;BME280;24333;42.626;23.308;2022-10-16T03:51:36;92912.66;;;5.88;100.00
38558;BME280;24333;42.626;23.308;2022-10-16T03:54:02;92906.94;;;5.90;100.00
38558;BME280;24333;42.626;23.308;2022-10-16T03:56:28;92911.22;;;5.91;100.00
38558;BME280;24333;42.626;23.308;2022-10-16T03:58:53;92913.47;;;5.89;100.00
38558;BME280;24333;42.626;23.308;2022-10-16T04:01:18;92907.25;;;5.88;100.00
38558;BME280;24333;42.626;23.308;2022-10-16T04:03:44;92908.06;;;5.89;100.00
38558;BME280;24333;42.626;23.308;2022-10-16T04:06:09;92907.91;;;5.85;100.00
38558;BME280;24333;42.626;23.308;2022-10-16T04:08:34;92902.88;;;5.75;100.00
38558;BME280;24333;42.626;23.308;2022-10-16T04:11:02;92907.50;;;5.74;100.00
38558;BME280;24333;42.626;23.308;2022-10-16T04:13:27;92906.91;;;5.69;100.00
38558;BME280;24333;42.626;23.308;2022-10-16T04:15:53;92905.44;;;5.71;100.00
38558;BME280;24333;42.626;23.308;2022-10-16T04:18:18;92909.72;;;5.72;100.00
38558;BME280;24333;42.626;23.308;2022-10-16T04:20:43;92912.63;;;5.67;100.00
38558;BME280;24333;42.626;23.308;2022-10-16T04:23:09;92904.03;;;5.65;100.00
38558;BME280;24333;42.626;23.308;2022-10-16T04:25:34;92901.53;;;5.60;100.00
38558;BME280;24333;42.626;23.308;2022-10-16T04:59:22;92932.06;;;5.90;100.00
38558;BME280;24333;42.626;23.308;2022-10-16T05:01:48;92941.28;;;5.98;100.00
38558;BME280;24333;42.626;23.308;2022-10-16T05:04:14;92936.53;;;5.95;100.00
38558;BME280;24333;42.626;23.308;2022-10-16T05:06:41;92956.84;;;6.10;100.00
38558;BME280;24333;42.626;23.308;2022-10-16T05:09:07;92956.31;;;6.17;100.00
38558;BME280;24333;42.626;23.308;2022-10-16T05:11:33;92958.38;;;6.20;100.00
38558;BME280;24333;42.626;23.308;2022-10-16T05:13:58;92951.38;;;6.19;100.00
38558;BME280;24333;42.626;23.308;2022-10-16T05:16:24;92940.19;;;6.20;100.00
38558;BME280;24333;42.626;23.308;2022-10-16T05:18:51;92964.97;;;6.31;100.00
38558;BME280;24333;42.626;23.308;2022-10-16T05:21:17;92955.38;;;6.34;100.00
38558;BME280;24333;42.626;23.308;2022-10-16T05:23:42;92959.50;;;6.40;100.00
38558;BME280;24333;42.626;23.308;2022-10-16T05:26:08;92946.53;;;6.46;100.00
38558;BME280;24333;42.626;23.308;2022-10-16T05:28:33;92950.63;;;6.52;100.00
38558;BME280;24333;42.626;23.308;2022-10-16T05:30:59;92949.31;;;6.58;100.00
38558;BME280;24333;42.626;23.308;2022-10-16T05:33:28;92954.78;;;6.71;100.00
38558;BME280;24333;42.626;23.308;2022-10-16T05:35:54;92951.88;;;6.76;100.00
38558;BME280;24333;42.626;23.308;2022-10-16T05:38:19;92955.56;;;6.92;100.00
38558;BME280;24333;42.626;23.308;2022-10-16T05:40:51;92955.91;;;7.03;100.00
38558;BME280;24333;42.626;23.308;2022-10-16T05:43:17;92972.34;;;7.19;100.00
38558;BME280;24333;42.626;23.308;2022-10-16T05:46:11;92972.41;;;7.32;100.00
38558;BME280;24333;42.626;23.308;2022-10-16T05:48:37;92969.69;;;7.32;100.00
38558;BME280;24333;42.626;23.308;2022-10-16T05:51:08;92982.00;;;7.42;100.00
38558;BME280;24333;42.626;23.308;2022-10-16T05:53:39;92970.69;;;7.40;100.00
38558;BME280;24333;42.626;23.308;2022-10-16T05:56:31;92965.63;;;7.50;100.00
38558;BME280;24333;42.626;23.308;2022-10-16T05:59:38;92989.19;;;7.71;100.00
38558;BME280;24333;42.626;23.308;2022-10-16T06:02:04;92980.59;;;7.69;100.00
38558;BME280;24333;42.626;23.308;2022-10-16T06:04:31;92990.78;;;7.85;100.00
38558;BME280;24333;42.626;23.308;2022-10-16T06:07:04;93014.66;;;8.04;100.00
38558;BME280;24333;42.626;23.308;2022-10-16T06:09:42;92990.56;;;7.90;100.00
38558;BME280;24333;42.626;23.308;2022-10-16T06:12:07;93010.25;;;8.12;100.00
38558;BME280;24333;42.626;23.308;2022-10-16T06:14:33;93010.03;;;8.17;100.00
38558;BME280;24333;42.626;23.308;2022-10-16T06:16:58;93007.44;;;8.20;100.00
38558;BME280;24333;42.626;23.308;2022-10-16T06:19:24;93021.81;;;8.33;100.00
38558;BME280;24333;42.626;23.308;2022-10-16T06:21:49;93017.72;;;8.27;100.00
38558;BME280;24333;42.626;23.308;2022-10-16T06:24:15;93011.59;;;8.30;100.00
38558;BME280;24333;42.626;23.308;2022-10-16T06:26:41;93021.34;;;8.44;100.00
38558;BME280;24333;42.626;23.308;2022-10-16T06:29:06;93029.75;;;8.51;100.00
38558;BME280;24333;42.626;23.308;2022-10-16T06:31:32;93029.72;;;8.63;100.00
38558;BME280;24333;42.626;23.308;2022-10-16T06:33:59;93023.25;;;8.68;100.00
38558;BME280;24333;42.626;23.308;2022-10-16T06:36:51;93025.84;;;8.77;100.00
38558;BME280;24333;42.626;23.308;2022-10-16T06:39:17;93028.88;;;8.88;100.00
38558;BME280;24333;42.626;23.308;2022-10-16T06:41:42;93039.59;;;9.09;100.00
38558;BME280;24333;42.626;23.308;2022-10-16T06:44:23;93037.31;;;9.11;100.00
38558;BME280;24333;42.626;23.308;2022-10-16T06:49:39;93047.31;;;9.35;100.00
38558;BME280;24333;42.626;23.308;2022-10-16T06:52:04;93056.47;;;9.43;100.00
38558;BME280;24333;42.626;23.308;2022-10-16T06:54:30;93056.88;;;9.29;100.00
38558;BME280;24333;42.626;23.308;2022-10-16T06:56:55;93070.84;;;9.15;100.00
38558;BME280;24333;42.626;23.308;2022-10-16T06:59:21;93063.19;;;9.05;100.00
38558;BME280;24333;42.626;23.308;2022-10-16T07:01:47;93070.75;;;9.11;100.00
38558;BME280;24333;42.626;23.308;2022-10-16T07:04:46;93069.75;;;9.04;100.00
38558;BME280;24333;42.626;23.308;2022-10-16T07:07:39;93075.41;;;9.11;100.00
38558;BME280;24333;42.626;23.308;2022-10-16T07:10:15;93071.72;;;8.91;100.00
38558;BME280;24333;42.626;23.308;2022-10-16T07:12:40;93072.28;;;8.84;100.00
38558;BME280;24333;42.626;23.308;2022-10-16T07:15:07;93077.50;;;8.77;100.00
38558;BME280;24333;42.626;23.308;2022-10-16T07:17:32;93072.84;;;8.77;100.00
38558;BME280;24333;42.626;23.308;2022-10-16T07:19:58;93073.88;;;8.85;100.00
38558;BME280;24333;42.626;23.308;2022-10-16T07:22:23;93083.13;;;8.96;100.00
38558;BME280;24333;42.626;23.308;2022-10-16T07:24:48;93081.09;;;8.93;100.00
38558;BME280;24333;42.626;23.308;2022-10-16T07:27:15;93081.66;;;8.99;100.00
38558;BME280;24333;42.626;23.308;2022-10-16T07:29:42;93075.09;;;9.00;100.00
38558;BME280;24333;42.626;23.308;2022-10-16T07:50:19;93095.81;;;9.74;100.00
38558;BME280;24333;42.626;23.308;2022-10-16T07:52:44;93090.69;;;9.73;100.00
38558;BME280;24333;42.626;23.308;2022-10-16T07:55:10;93101.81;;;9.96;100.00
38558;BME280;24333;42.626;23.308;2022-10-16T07:57:36;93084.59;;;9.92;100.00
38558;BME280;24333;42.626;23.308;2022-10-16T08:00:03;93103.69;;;10.08;100.00
38558;BME280;24333;42.626;23.308;2022-10-16T08:27:23;93117.06;;;10.93;100.00
38558;BME280;24333;42.626;23.308;2022-10-16T08:29:49;93116.47;;;11.20;100.00
38558;BME280;24333;42.626;23.308;2022-10-16T08:32:14;93108.31;;;11.39;100.00
38558;BME280;24333;42.626;23.308;2022-10-16T08:34:41;93110.81;;;11.68;100.00
38558;BME280;24333;42.626;23.308;2022-10-16T08:37:43;93103.84;;;11.51;100.00
38558;BME280;24333;42.626;23.308;2022-10-16T08:48:52;93123.53;;;11.80;100.00
38558;BME280;24333;42.626;23.308;2022-10-16T08:56:17;93118.81;;;12.20;88.86
38558;BME280;24333;42.626;23.308;2022-10-16T08:59:01;93139.94;;;12.42;80.25
38558;BME280;24333;42.626;23.308;2022-10-16T09:01:49;93128.38;;;12.53;79.74
38558;BME280;24333;42.626;23.308;2022-10-16T09:07:44;93127.50;;;12.68;71.67
38558;BME280;24333;42.626;23.308;2022-10-16T09:20:28;93131.50;;;12.51;76.91
38558;BME280;24333;42.626;23.308;2022-10-16T09:39:01;93134.13;;;13.44;85.60
38558;BME280;24333;42.626;23.308;2022-10-16T09:41:39;93121.38;;;13.59;70.24
38558;BME280;24333;42.626;23.308;2022-10-16T09:44:31;93128.84;;;13.93;74.41
38558;BME280;24333;42.626;23.308;2022-10-16T09:54:59;93102.19;;;13.90;64.85
38558;BME280;24333;42.626;23.308;2022-10-16T10:00:54;93128.97;;;13.70;61.39
38558;BME280;24333;42.626;23.308;2022-10-16T10:03:57;93125.69;;;13.61;61.66
38558;BME280;24333;42.626;23.308;2022-10-16T10:06:57;93118.22;;;13.57;61.25
38558;BME280;24333;42.626;23.308;2022-10-16T10:09:46;93118.94;;;13.51;62.27
38558;BME280;24333;42.626;23.308;2022-10-16T10:12:29;93116.09;;;13.74;63.29
38558;BME280;24333;42.626;23.308;2022-10-16T10:15:07;93119.75;;;13.85;60.12
38558;BME280;24333;42.626;23.308;2022-10-16T10:17:47;93107.88;;;13.74;60.81
38558;BME280;24333;42.626;23.308;2022-10-16T10:20:28;93114.94;;;13.75;61.68
38558;BME280;24333;42.626;23.308;2022-10-16T10:22:56;93095.56;;;13.95;66.77
38558;BME280;24333;42.626;23.308;2022-10-16T10:25:36;93116.44;;;14.03;60.32
38558;BME280;24333;42.626;23.308;2022-10-16T10:28:29;93115.69;;;14.06;65.56
38558;BME280;24333;42.626;23.308;2022-10-16T10:36:41;93119.13;;;13.99;59.02
38558;BME280;24333;42.626;23.308;2022-10-16T10:39:21;93113.88;;;14.21;64.73
38558;BME280;24333;42.626;23.308;2022-10-16T10:42:14;93109.56;;;14.24;57.91
38558;BME280;24333;42.626;23.308;2022-10-16T11:01:29;93076.00;;;14.38;56.16
38558;BME280;24333;42.626;23.308;2022-10-16T11:09:34;93082.88;;;14.62;53.42
38558;BME280;24333;42.626;23.308;2022-10-16T11:12:25;93077.75;;;14.57;52.20
38558;BME280;24333;42.626;23.308;2022-10-16T11:15:14;93081.84;;;14.74;56.80
38558;BME280;24333;42.626;23.308;2022-10-16T11:17:54;93072.75;;;14.70;52.19
38558;BME280;24333;42.626;23.308;2022-10-16T11:21:04;93068.31;;;15.03;64.46
38558;BME280;24333;42.626;23.308;2022-10-16T11:23:42;93073.16;;;15.24;53.88
38558;BME280;24333;42.626;23.308;2022-10-16T11:26:21;93067.69;;;15.28;51.17
38558;BME280;24333;42.626;23.308;2022-10-16T11:28:50;93066.94;;;15.38;52.34
38558;BME280;24333;42.626;23.308;2022-10-16T11:31:37;93053.16;;;15.27;50.08
38558;BME280;24333;42.626;23.308;2022-10-16T11:39:45;93056.53;;;15.84;56.68
38558;BME280;24333;42.626;23.308;2022-10-16T11:42:37;93069.94;;;15.93;49.54
38558;BME280;24333;42.626;23.308;2022-10-16T11:45:30;93074.00;;;15.36;47.06
38558;BME280;24333;42.626;23.308;2022-10-16T11:48:26;93072.00;;;15.32;48.87
38558;BME280;24333;42.626;23.308;2022-10-16T11:56:11;93054.94;;;15.75;55.41
38558;BME280;24333;42.626;23.308;2022-10-16T12:04:46;93061.91;;;15.51;48.33
38558;BME280;24333;42.626;23.308;2022-10-16T12:07:27;93048.66;;;15.79;72.32
38558;BME280;24333;42.626;23.308;2022-10-16T12:09:58;93056.94;;;15.82;50.47
38558;BME280;24333;42.626;23.308;2022-10-16T12:15:19;93065.75;;;15.36;47.64
38558;BME280;24333;42.626;23.308;2022-10-16T12:17:45;93062.56;;;15.26;48.02
38558;BME280;24333;42.626;23.308;2022-10-16T12:22:41;93058.09;;;15.81;73.17
38558;BME280;24333;42.626;23.308;2022-10-16T12:25:40;93067.25;;;16.14;73.74
38558;BME280;24333;42.626;23.308;2022-10-16T12:28:19;93076.69;;;16.17;52.21
38558;BME280;24333;42.626;23.308;2022-10-16T12:30:54;93057.44;;;16.21;67.72
38558;BME280;24333;42.626;23.308;2022-10-16T12:33:26;93061.41;;;16.45;83.86
38558;BME280;24333;42.626;23.308;2022-10-16T12:41:11;93068.47;;;16.42;50.77
38558;BME280;24333;42.626;23.308;2022-10-16T12:43:41;93062.19;;;16.42;69.20
38558;BME280;24333;42.626;23.308;2022-10-16T12:48:40;93066.09;;;16.26;89.46
38558;BME280;24333;42.626;23.308;2022-10-16T12:51:11;93062.56;;;16.26;63.71
38558;BME280;24333;42.626;23.308;2022-10-16T12:53:38;93062.91;;;16.06;48.70
38558;BME280;24333;42.626;23.308;2022-10-16T12:58:36;93082.59;;;16.19;64.93
38558;BME280;24333;42.626;23.308;2022-10-16T13:01:20;93053.06;;;16.05;52.75
38558;BME280;24333;42.626;23.308;2022-10-16T13:03:58;93090.47;;;16.21;50.45
38558;BME280;24333;42.626;23.308;2022-10-16T13:06:53;93087.69;;;16.13;51.52
38558;BME280;24333;42.626;23.308;2022-10-16T13:09:51;93092.00;;;16.03;50.92
38558;BME280;24333;42.626;23.308;2022-10-16T13:12:39;93092.78;;;16.00;50.44
38558;BME280;24333;42.626;23.308;2022-10-16T13:18:24;93084.50;;;15.93;54.18
38558;BME280;24333;42.626;23.308;2022-10-16T13:23:59;93086.44;;;15.93;48.80
38558;BME280;24333;42.626;23.308;2022-10-16T14:13:15;93108.66;;;13.44;65.26
38558;BME280;24333;42.626;23.308;2022-10-16T14:15:39;93089.03;;;13.11;64.29
38558;BME280;24333;42.626;23.308;2022-10-16T14:18:05;93091.66;;;13.04;65.81
38558;BME280;24333;42.626;23.308;2022-10-16T14:20:33;93104.88;;;12.98;69.16
38558;BME280;24333;42.626;23.308;2022-10-16T14:25:43;93114.81;;;12.83;68.05
38558;BME280;24333;42.626;23.308;2022-10-16T14:28:22;93109.59;;;12.75;68.89
38558;BME280;24333;42.626;23.308;2022-10-16T14:33:24;93120.75;;;12.62;66.89
38558;BME280;24333;42.626;23.308;2022-10-16T14:38:25;93119.34;;;12.49;68.70
38558;BME280;24333;42.626;23.308;2022-10-16T14:41:08;93109.50;;;12.44;73.24
38558;BME280;24333;42.626;23.308;2022-10-16T14:43:40;93121.59;;;12.43;68.56
38558;BME280;24333;42.626;23.308;2022-10-16T14:46:13;93122.59;;;12.35;70.85
38558;BME280;24333;42.626;23.308;2022-10-16T14:48:41;93104.81;;;12.21;78.30
38558;BME280;24333;42.626;23.308;2022-10-16T14:51:19;93089.59;;;12.00;82.25
38558;BME280;24333;42.626;23.308;2022-10-16T14:53:46;93125.31;;;12.11;81.84
38558;BME280;24333;42.626;23.308;2022-10-16T14:56:23;93132.81;;;11.95;83.28
38558;BME280;24333;42.626;23.308;2022-10-16T14:58:51;93141.31;;;11.90;80.13
38558;BME280;24333;42.626;23.308;2022-10-16T15:01:17;93145.84;;;11.82;80.76
38558;BME280;24333;42.626;23.308;2022-10-16T15:03:43;93141.72;;;11.72;78.13
38558;BME280;24333;42.626;23.308;2022-10-16T15:06:13;93139.81;;;11.73;81.19
38558;BME280;24333;42.626;23.308;2022-10-16T15:08:39;93128.94;;;11.56;83.99
38558;BME280;24333;42.626;23.308;2022-10-16T15:11:09;93133.53;;;11.52;84.09
38558;BME280;24333;42.626;23.308;2022-10-16T15:13:45;93137.41;;;11.51;87.94
38558;BME280;24333;42.626;23.308;2022-10-16T15:16:12;93155.22;;;11.45;89.51
38558;BME280;24333;42.626;23.308;2022-10-16T15:18:38;93150.69;;;11.33;92.58
38558;BME280;24333;42.626;23.308;2022-10-16T15:21:04;93148.25;;;11.12;94.20
38558;BME280;24333;42.626;23.308;2022-10-16T15:23:30;93143.97;;;10.95;93.88
38558;BME280;24333;42.626;23.308;2022-10-16T15:25:57;93148.06;;;10.85;88.51
38558;BME280;24333;42.626;23.308;2022-10-16T15:28:23;93167.03;;;10.97;86.52
38558;BME280;24333;42.626;23.308;2022-10-16T15:30:51;93149.00;;;10.77;86.39
38558;BME280;24333;42.626;23.308;2022-10-16T15:33:19;93161.25;;;10.83;88.62
38558;BME280;24333;42.626;23.308;2022-10-16T15:35:49;93168.09;;;10.77;93.71
38558;BME280;24333;42.626;23.308;2022-10-16T15:38:17;93147.34;;;10.56;91.51
38558;BME280;24333;42.626;23.308;2022-10-16T15:40:45;93169.34;;;10.63;93.35
38558;BME280;24333;42.626;23.308;2022-10-16T15:43:10;93151.97;;;10.39;91.33
38558;BME280;24333;42.626;23.308;2022-10-16T15:45:37;93155.53;;;10.40;89.26
38558;BME280;24333;42.626;23.308;2022-10-16T15:48:02;93156.31;;;10.40;90.40
38558;BME280;24333;42.626;23.308;2022-10-16T15:50:30;93160.84;;;10.36;93.37
38558;BME280;24333;42.626;23.308;2022-10-16T15:52:55;93176.75;;;10.34;92.99
38558;BME280;24333;42.626;23.308;2022-10-16T15:55:21;93188.88;;;10.21;93.21
38558;BME280;24333;42.626;23.308;2022-10-16T15:57:46;93159.44;;;10.10;95.25
38558;BME280;24333;42.626;23.308;2022-10-16T16:00:17;93186.41;;;10.16;93.39
38558;BME280;24333;42.626;23.308;2022-10-16T16:02:45;93193.44;;;10.17;94.21
38558;BME280;24333;42.626;23.308;2022-10-16T16:05:14;93190.19;;;10.11;93.40
38558;BME280;24333;42.626;23.308;2022-10-16T16:07:39;93190.06;;;10.07;94.87
38558;BME280;24333;42.626;23.308;2022-10-16T16:10:07;93187.84;;;9.97;95.99
38558;BME280;24333;42.626;23.308;2022-10-16T16:12:34;93194.88;;;9.98;94.66
38558;BME280;24333;42.626;23.308;2022-10-16T16:15:00;93200.69;;;9.96;93.01
38558;BME280;24333;42.626;23.308;2022-10-16T16:17:25;93197.88;;;9.93;92.67
38558;BME280;24333;42.626;23.308;2022-10-16T16:19:51;93190.19;;;9.82;92.77
38558;BME280;24333;42.626;23.308;2022-10-16T16:22:16;93199.44;;;9.94;89.69
38558;BME280;24333;42.626;23.308;2022-10-16T16:24:42;93191.34;;;9.81;90.60
38558;BME280;24333;42.626;23.308;2022-10-16T16:27:08;93199.69;;;9.89;89.00
38558;BME280;24333;42.626;23.308;2022-10-16T16:29:33;93197.22;;;9.83;88.35
38558;BME280;24333;42.626;23.308;2022-10-16T16:31:59;93214.47;;;9.88;88.91
38558;BME280;24333;42.626;23.308;2022-10-16T16:34:28;93215.78;;;9.94;88.10
38558;BME280;24333;42.626;23.308;2022-10-16T16:36:55;93208.13;;;9.83;89.02
38558;BME280;24333;42.626;23.308;2022-10-16T16:39:21;93218.78;;;9.89;91.03
38558;BME280;24333;42.626;23.308;2022-10-16T16:41:47;93224.66;;;9.91;91.71
38558;BME280;24333;42.626;23.308;2022-10-16T16:44:15;93233.97;;;9.90;94.25
38558;BME280;24333;42.626;23.308;2022-10-16T16:46:47;93215.41;;;9.67;95.51
38558;BME280;24333;42.626;23.308;2022-10-16T16:49:13;93245.25;;;9.76;96.73
38558;BME280;24333;42.626;23.308;2022-10-16T16:51:40;93231.91;;;9.58;93.03
38558;BME280;24333;42.626;23.308;2022-10-16T16:54:06;93234.72;;;9.62;92.67
38558;BME280;24333;42.626;23.308;2022-10-16T16:56:33;93245.72;;;9.65;91.74
38558;BME280;24333;42.626;23.308;2022-10-16T16:58:58;93247.88;;;9.60;96.62
38558;BME280;24333;42.626;23.308;2022-10-16T17:01:25;93240.19;;;9.49;96.17
38558;BME280;24333;42.626;23.308;2022-10-16T17:03:55;93251.31;;;9.57;95.58
38558;BME280;24333;42.626;23.308;2022-10-16T17:06:26;93238.84;;;9.43;96.72
38558;BME280;24333;42.626;23.308;2022-10-16T17:08:55;93241.69;;;9.34;95.02
38558;BME280;24333;42.626;23.308;2022-10-16T17:11:22;93258.94;;;9.38;95.00
38558;BME280;24333;42.626;23.308;2022-10-16T17:13:49;93247.13;;;9.34;91.67
38558;BME280;24333;42.626;23.308;2022-10-16T17:16:18;93240.56;;;9.35;96.29
38558;BME280;24333;42.626;23.308;2022-10-16T17:18:43;93248.72;;;9.35;91.79
38558;BME280;24333;42.626;23.308;2022-10-16T17:21:09;93252.13;;;9.32;94.03
38558;BME280;24333;42.626;23.308;2022-10-16T17:23:36;93232.06;;;9.24;94.20
38558;BME280;24333;42.626;23.308;2022-10-16T17:26:04;93243.75;;;9.25;95.98
38558;BME280;24333;42.626;23.308;2022-10-16T17:28:30;93244.53;;;9.25;95.20
38558;BME280;24333;42.626;23.308;2022-10-16T17:30:55;93257.91;;;9.31;96.35
38558;BME280;24333;42.626;23.308;2022-10-16T17:33:21;93263.03;;;9.20;97.04
38558;BME280;24333;42.626;23.308;2022-10-16T17:35:46;93267.34;;;9.21;95.73
38558;BME280;24333;42.626;23.308;2022-10-16T17:38:13;93246.13;;;9.02;98.24
38558;BME280;24333;42.626;23.308;2022-10-16T17:40:42;93251.69;;;9.05;95.83
38558;BME280;24333;42.626;23.308;2022-10-16T18:47:14;93323.22;;;10.21;86.16
38558;BME280;24333;42.626;23.308;2022-10-16T18:49:39;93331.19;;;10.14;88.25
38558;BME280;24333;42.626;23.308;2022-10-16T18:52:05;93327.47;;;10.06;89.67
38558;BME280;24333;42.626;23.308;2022-10-16T18:54:30;93326.81;;;9.97;89.55
38558;BME280;24333;42.626;23.308;2022-10-16T18:56:56;93332.84;;;9.90;91.80
38558;BME280;24333;42.626;23.308;2022-10-16T18:59:21;93331.03;;;9.82;92.45
38558;BME280;24333;42.626;23.308;2022-10-16T19:01:48;93327.97;;;9.71;91.08
38558;BME280;24333;42.626;23.308;2022-10-16T19:04:15;93345.13;;;9.72;92.54
38558;BME280;24333;42.626;23.308;2022-10-16T19:06:46;93347.63;;;9.64;93.90
38558;BME280;24333;42.626;23.308;2022-10-16T19:09:15;93354.09;;;9.60;95.80
38558;BME280;24333;42.626;23.308;2022-10-16T19:11:41;93342.84;;;9.49;98.59
38558;BME280;24333;42.626;23.308;2022-10-16T19:14:08;93347.41;;;9.32;98.68
38558;BME280;24333;42.626;23.308;2022-10-16T19:16:34;93350.44;;;9.18;98.62
38558;BME280;24333;42.626;23.308;2022-10-16T19:19:03;93355.88;;;9.18;100.00
38558;BME280;24333;42.626;23.308;2022-10-16T19:21:29;93354.06;;;9.10;100.00
38558;BME280;24333;42.626;23.308;2022-10-16T19:24:00;93362.06;;;8.94;100.00
38558;BME280;24333;42.626;23.308;2022-10-16T19:26:27;93366.91;;;8.88;100.00